createdAt,value
2022-12-11T00:00:25.061Z,57.65
2022-12-11T00:02:51.804Z,55.17
2022-12-11T00:05:18.564Z,51.47
2022-12-11T00:07:45.174Z,52.72
2022-12-11T00:10:11.760Z,59.00
2022-12-11T00:12:38.323Z,54.45
2022-12-11T00:15:05.300Z,58.50
2022-12-11T00:17:31.879Z,53.50
2022-12-11T00:19:59.474Z,58.45
2022-12-11T00:22:26.056Z,55.00
2022-12-11T00:24:52.710Z,53.65
2022-12-11T00:27:19.335Z,52.60
2022-12-11T00:29:46.047Z,54.78
2022-12-11T00:32:12.791Z,54.38
2022-12-11T00:34:39.497Z,53.20
2022-12-11T00:37:06.127Z,51.50
2022-12-11T00:39:32.771Z,51.80
2022-12-11T00:41:59.414Z,48.58
2022-12-11T00:44:26.050Z,48.20
2022-12-11T00:46:52.609Z,50.08
2022-12-11T00:49:19.211Z,51.40
2022-12-11T00:51:45.838Z,48.88
2022-12-11T00:54:12.419Z,50.40
2022-12-11T00:56:39.146Z,49.75
2022-12-11T00:59:05.767Z,48.03
2022-12-11T01:01:32.524Z,45.30
2022-12-11T01:03:59.287Z,42.60
2022-12-11T01:06:28.075Z,49.58
2022-12-11T01:09:15.195Z,48.42
2022-12-11T01:11:43.113Z,47.20
2022-12-11T01:14:11.071Z,49.45
2022-12-11T01:16:37.712Z,45.97
2022-12-11T01:19:04.443Z,47.10
2022-12-11T01:21:31.132Z,47.85
2022-12-11T01:23:57.745Z,49.53
2022-12-11T01:26:24.361Z,45.58
2022-12-11T01:28:52.208Z,48.33
2022-12-11T01:31:20.804Z,50.65
2022-12-11T01:33:47.538Z,45.60
2022-12-11T01:36:17.128Z,47.58
2022-12-11T01:38:44.518Z,44.30
2022-12-11T01:41:11.606Z,44.85
2022-12-11T01:43:59.746Z,44.40
2022-12-11T01:46:27.457Z,47.65
2022-12-11T01:48:54.635Z,45.88
2022-12-11T01:51:22.312Z,40.65
2022-12-11T01:54:00.592Z,39.72
2022-12-11T01:56:29.931Z,41.28
2022-12-11T01:59:00.205Z,43.40
2022-12-11T02:01:38.735Z,38.75
2022-12-11T02:04:07.406Z,42.30
2022-12-11T02:06:40.609Z,40.30
2022-12-11T02:09:12.175Z,39.20
2022-12-11T02:11:55.682Z,40.03
2022-12-11T02:14:54.249Z,39.10
2022-12-11T02:17:28.046Z,42.17
2022-12-11T02:20:03.807Z,39.47
2022-12-11T02:23:05.839Z,40.67
2022-12-11T02:25:47.148Z,43.75
2022-12-11T02:28:13.811Z,39.08
2022-12-11T02:30:43.667Z,39.03
2022-12-11T02:33:13.680Z,37.78
2022-12-11T02:35:42.876Z,39.63
2022-12-11T02:38:19.005Z,40.15
2022-12-11T02:40:49.473Z,40.53
2022-12-11T02:43:17.128Z,40.25
2022-12-11T02:45:45.559Z,40.55
2022-12-11T02:48:14.178Z,37.85
2022-12-11T02:50:45.937Z,41.40
2022-12-11T02:53:15.860Z,38.55
2022-12-11T02:55:43.855Z,40.78
2022-12-11T02:58:19.499Z,39.10
2022-12-11T03:00:46.877Z,40.45
2022-12-11T03:03:14.112Z,44.90
2022-12-11T03:05:42.122Z,38.13
2022-12-11T03:08:09.198Z,40.28
2022-12-11T03:10:35.828Z,39.97
2022-12-11T03:13:03.269Z,42.10
2022-12-11T03:15:48.940Z,41.97
2022-12-11T03:18:50.278Z,38.78
2022-12-11T03:21:31.177Z,35.65
2022-12-11T03:24:13.774Z,41.95
2022-12-11T03:26:44.201Z,36.95
2022-12-11T03:29:23.268Z,37.33
2022-12-11T03:32:07.054Z,37.88
2022-12-11T03:37:13.597Z,35.03
2022-12-11T03:39:47.133Z,36.58
2022-12-11T03:44:44.870Z,35.38
2022-12-11T03:47:15.354Z,36.17
2022-12-11T03:49:43.376Z,37.40
2022-12-11T03:52:12.347Z,35.38
2022-12-11T03:54:41.695Z,33.50
2022-12-11T03:57:12.023Z,35.58
2022-12-11T03:59:38.634Z,34.63
2022-12-11T04:02:11.106Z,35.53
2022-12-11T04:04:39.546Z,33.92
2022-12-11T04:07:06.613Z,31.83
2022-12-11T04:09:33.262Z,36.60
2022-12-11T04:11:59.970Z,34.30
2022-12-11T04:14:45.391Z,36.75
2022-12-11T04:17:12.231Z,37.60
2022-12-11T04:19:57.631Z,39.63
2022-12-11T04:22:26.947Z,35.97
2022-12-11T04:24:53.591Z,32.78
2022-12-11T04:27:39.034Z,36.15
2022-12-11T04:30:09.805Z,35.10
2022-12-11T04:32:36.736Z,38.25
2022-12-11T04:35:04.078Z,35.75
2022-12-11T04:37:30.653Z,35.33
2022-12-11T04:39:57.243Z,33.40
2022-12-11T04:42:23.888Z,38.45
2022-12-11T04:44:50.754Z,34.53
2022-12-11T04:47:17.425Z,36.28
2022-12-11T04:49:44.057Z,35.38
2022-12-11T04:52:10.645Z,31.80
2022-12-11T04:54:37.266Z,31.40
2022-12-11T04:57:03.913Z,30.60
2022-12-11T04:59:32.908Z,28.15
2022-12-11T05:01:59.662Z,29.13
2022-12-11T05:04:26.494Z,30.98
2022-12-11T05:06:53.095Z,31.98
2022-12-11T05:09:19.672Z,30.98
2022-12-11T05:11:46.260Z,30.25
2022-12-11T05:14:13.430Z,29.83
2022-12-11T05:16:39.991Z,29.10
2022-12-11T05:19:06.669Z,28.05
2022-12-11T05:21:35.168Z,28.05
2022-12-11T05:24:02.379Z,30.00
2022-12-11T05:26:29.177Z,28.38
2022-12-11T05:28:56.269Z,30.33
2022-12-11T05:31:26.400Z,28.58
2022-12-11T05:33:54.120Z,23.85
2022-12-11T05:36:26.794Z,25.33
2022-12-11T05:38:53.592Z,25.50
2022-12-11T05:41:22.423Z,25.00
2022-12-11T05:43:49.282Z,25.25
2022-12-11T05:46:22.492Z,27.20
2022-12-11T05:48:50.884Z,26.90
2022-12-11T05:51:18.880Z,24.95
2022-12-11T05:53:47.229Z,26.38
2022-12-11T05:56:19.679Z,26.77
2022-12-11T05:58:47.722Z,25.58
2022-12-11T06:01:18.969Z,28.23
2022-12-11T06:03:45.688Z,27.42
2022-12-11T06:06:12.296Z,25.67
2022-12-11T06:08:39.217Z,27.63
2022-12-11T06:11:06.390Z,25.23
2022-12-11T06:13:33.081Z,29.38
2022-12-11T06:16:04.693Z,26.92
2022-12-11T06:18:32.184Z,28.35
2022-12-11T06:20:58.739Z,29.90
2022-12-11T06:23:25.346Z,31.90
2022-12-11T06:25:52.075Z,31.75
2022-12-11T06:28:18.875Z,34.97
2022-12-11T06:30:45.512Z,30.35
2022-12-11T06:33:12.145Z,35.35
2022-12-11T06:35:41.988Z,33.90
2022-12-11T06:38:10.522Z,34.95
2022-12-11T06:40:37.267Z,32.95
2022-12-11T06:43:03.825Z,36.65
2022-12-11T06:45:30.801Z,36.72
2022-12-11T06:47:58.164Z,34.80
2022-12-11T06:50:24.895Z,34.58
2022-12-11T06:52:51.448Z,35.97
2022-12-11T06:55:18.102Z,35.63
2022-12-11T06:57:44.697Z,35.13
2022-12-11T07:00:11.863Z,33.97
2022-12-11T07:02:38.615Z,33.20
2022-12-11T07:05:05.788Z,34.75
2022-12-11T07:07:32.683Z,36.60
2022-12-11T07:10:05.761Z,39.47
2022-12-11T07:12:34.444Z,32.45
2022-12-11T07:15:01.078Z,36.30
2022-12-11T07:17:29.256Z,34.53
2022-12-11T07:19:56.055Z,34.65
2022-12-11T07:22:22.679Z,35.28
2022-12-11T07:24:49.388Z,34.10
2022-12-11T07:27:16.275Z,36.20
2022-12-11T07:29:42.920Z,32.72
2022-12-11T07:32:09.614Z,35.10
2022-12-11T07:34:36.442Z,34.25
2022-12-11T07:37:03.142Z,35.75
2022-12-11T07:39:29.733Z,35.92
2022-12-11T07:41:56.403Z,37.60
2022-12-11T07:44:23.300Z,35.08
2022-12-11T07:46:49.882Z,36.67
2022-12-11T07:49:16.674Z,34.92
2022-12-11T07:51:43.539Z,35.08
2022-12-11T07:54:16.479Z,36.90
2022-12-11T07:56:45.619Z,34.17
2022-12-11T07:59:15.633Z,34.53
2022-12-11T08:01:43.119Z,33.25
2022-12-11T08:04:11.614Z,34.20
2022-12-11T08:06:39.964Z,35.80
2022-12-11T08:09:09.535Z,36.22
2022-12-11T08:11:36.447Z,36.88
2022-12-11T08:14:03.616Z,36.85
2022-12-11T08:16:30.277Z,34.30
2022-12-11T08:18:57.863Z,34.45
2022-12-11T08:21:26.023Z,35.30
2022-12-11T08:23:54.372Z,36.38
2022-12-11T08:26:23.641Z,34.63
2022-12-11T08:28:50.344Z,33.47
2022-12-11T08:31:18.072Z,32.25
2022-12-11T08:33:45.010Z,34.35
2022-12-11T08:36:15.013Z,34.20
2022-12-11T08:38:42.365Z,32.50
2022-12-11T08:41:09.830Z,34.85
2022-12-11T08:43:36.704Z,35.50
2022-12-11T08:46:03.641Z,32.20
2022-12-11T08:48:30.463Z,31.25
2022-12-11T08:51:01.432Z,29.77
2022-12-11T08:53:32.111Z,28.77
2022-12-11T08:56:09.890Z,32.97
2022-12-11T08:58:37.097Z,28.65
2022-12-11T09:01:09.150Z,27.67
2022-12-11T09:03:36.949Z,28.42
2022-12-11T09:06:12.480Z,29.98
2022-12-11T09:08:39.327Z,28.75
2022-12-11T09:11:08.782Z,28.65
2022-12-11T09:13:36.278Z,26.85
2022-12-11T09:16:09.353Z,26.77
2022-12-11T09:18:37.431Z,28.55
2022-12-11T09:21:09.960Z,27.27
2022-12-11T09:23:37.449Z,27.13
2022-12-11T09:26:06.052Z,26.10
2022-12-11T09:28:32.867Z,28.27
2022-12-11T09:30:59.706Z,25.85
2022-12-11T09:33:26.335Z,26.02
2022-12-11T09:36:00.298Z,24.40
2022-12-11T09:38:27.094Z,25.90
2022-12-11T09:40:53.990Z,26.63
2022-12-11T09:43:46.126Z,25.17
2022-12-11T09:46:17.348Z,23.90
2022-12-11T09:48:47.825Z,24.92
2022-12-11T09:51:43.701Z,23.75
2022-12-11T09:54:13.280Z,23.83
2022-12-11T09:56:45.635Z,23.58
2022-12-11T09:59:24.189Z,22.50
2022-12-11T10:02:12.490Z,24.23
2022-12-11T10:05:06.110Z,22.38
2022-12-11T10:07:51.627Z,18.13
2022-12-11T10:10:24.394Z,21.95
2022-12-11T10:13:01.922Z,22.87
2022-12-11T10:15:52.500Z,24.15
2022-12-11T10:18:22.994Z,26.80
2022-12-11T10:20:52.874Z,24.08
2022-12-11T10:23:35.318Z,23.52
2022-12-11T10:26:18.113Z,25.73
2022-12-11T10:28:45.006Z,25.63
2022-12-11T10:31:19.244Z,26.60
2022-12-11T10:34:03.956Z,26.40
2022-12-11T10:36:34.712Z,25.13
2022-12-11T10:39:02.331Z,24.05
2022-12-11T10:41:41.752Z,24.17
2022-12-11T10:44:30.200Z,22.02
2022-12-11T10:47:13.685Z,21.52
2022-12-11T10:49:51.792Z,25.67
2022-12-11T10:52:23.973Z,25.70
2022-12-11T10:55:03.520Z,23.75
2022-12-11T10:57:35.812Z,25.52
2022-12-11T11:00:06.024Z,24.88
2022-12-11T11:02:36.714Z,20.77
2022-12-11T11:05:30.124Z,20.98
2022-12-11T11:08:03.602Z,19.73
2022-12-11T11:10:30.424Z,21.38
2022-12-11T11:13:01.610Z,22.40
2022-12-11T11:15:31.532Z,21.58
2022-12-11T11:18:09.674Z,21.48
2022-12-11T11:20:36.343Z,22.42
2022-12-11T11:23:14.115Z,23.30
2022-12-11T11:25:52.112Z,22.85
2022-12-11T11:28:31.443Z,21.98
2022-12-11T11:31:05.315Z,23.00
2022-12-11T11:33:34.404Z,21.58
2022-12-11T11:36:06.537Z,21.85
2022-12-11T11:38:38.614Z,23.83
2022-12-11T11:41:23.814Z,22.65
2022-12-11T11:43:57.693Z,19.35
2022-12-11T11:46:26.665Z,21.42
2022-12-11T11:49:14.182Z,19.15
2022-12-11T11:51:46.370Z,19.48
2022-12-11T11:54:27.859Z,19.08
2022-12-11T11:56:57.037Z,18.85
2022-12-11T11:59:29.813Z,24.25
2022-12-11T12:01:57.750Z,19.30
2022-12-11T12:04:28.030Z,19.13
2022-12-11T12:07:08.356Z,17.65
2022-12-11T12:10:04.130Z,18.33
2022-12-11T12:12:34.353Z,18.95
2022-12-11T12:15:22.807Z,20.77
2022-12-11T12:18:00.647Z,19.20
2022-12-11T12:20:35.744Z,19.35
2022-12-11T12:23:33.329Z,20.15
2022-12-11T12:26:23.939Z,18.48
2022-12-11T12:29:12.309Z,15.93
2022-12-11T12:31:57.892Z,16.13
2022-12-11T12:34:48.719Z,18.67
2022-12-11T12:37:43.684Z,16.25
2022-12-11T12:40:33.692Z,13.73
2022-12-11T12:43:19.479Z,13.48
2022-12-11T12:45:59.074Z,16.52
2022-12-11T12:48:27.219Z,17.90
2022-12-11T12:50:54.240Z,18.08
2022-12-11T12:53:28.320Z,18.65
2022-12-11T12:55:55.469Z,18.23
2022-12-11T12:58:39.812Z,18.85
2022-12-11T13:01:16.786Z,19.92
2022-12-11T13:03:55.729Z,18.80
2022-12-11T13:06:38.434Z,19.63
2022-12-11T13:09:26.159Z,18.67
2022-12-11T13:11:57.592Z,19.13
2022-12-11T13:14:31.582Z,21.70
2022-12-11T13:17:23.091Z,20.38
2022-12-11T13:19:57.452Z,19.17
2022-12-11T13:22:24.634Z,19.77
2022-12-11T13:25:04.101Z,17.08
2022-12-11T13:27:39.926Z,18.30
2022-12-11T13:30:20.802Z,25.45
2022-12-11T13:33:08.058Z,19.40
2022-12-11T13:35:35.372Z,17.23
2022-12-11T13:38:06.558Z,19.88
2022-12-11T13:40:43.041Z,15.63
2022-12-11T13:43:26.813Z,17.52
2022-12-11T13:46:00.540Z,15.95
2022-12-11T13:48:31.973Z,17.20
2022-12-11T13:51:00.166Z,16.65
2022-12-11T13:53:26.917Z,16.98
2022-12-11T13:56:02.835Z,16.58
2022-12-11T13:58:33.887Z,16.80
2022-12-11T14:01:25.272Z,15.48
2022-12-11T14:04:13.964Z,15.23
2022-12-11T14:06:40.904Z,15.15
2022-12-11T14:09:09.123Z,16.38
2022-12-11T14:11:42.515Z,18.48
2022-12-11T14:14:22.136Z,18.30
2022-12-11T14:16:50.458Z,17.52
2022-12-11T14:19:20.433Z,17.67
2022-12-11T14:22:07.943Z,21.38
2022-12-11T14:24:34.535Z,14.75
2022-12-11T14:27:01.320Z,18.70
2022-12-11T14:29:33.071Z,20.73
2022-12-11T14:32:03.872Z,17.60
2022-12-11T14:34:35.684Z,19.60
2022-12-11T14:37:05.103Z,19.55
2022-12-11T14:39:39.479Z,17.20
2022-12-11T14:42:09.175Z,16.67
2022-12-11T14:44:53.282Z,20.15
2022-12-11T14:47:27.322Z,20.27
2022-12-11T14:49:58.678Z,25.58
2022-12-11T14:52:38.539Z,20.15
2022-12-11T14:55:10.538Z,20.27
2022-12-11T14:57:41.317Z,20.58
2022-12-11T15:00:08.934Z,21.75
2022-12-11T15:02:36.910Z,18.52
2022-12-11T15:05:19.485Z,18.75
2022-12-11T15:07:58.017Z,25.95
2022-12-11T15:10:36.073Z,22.67
2022-12-11T15:13:05.583Z,20.73
2022-12-11T15:15:42.990Z,20.55
2022-12-11T15:18:23.549Z,24.20
2022-12-11T15:20:53.127Z,21.65
2022-12-11T15:23:20.265Z,21.63
2022-12-11T15:25:54.824Z,23.10
2022-12-11T15:28:36.583Z,23.85
2022-12-11T15:31:23.893Z,22.63
2022-12-11T15:33:50.550Z,23.75
2022-12-11T15:36:35.450Z,23.70
2022-12-11T15:39:05.478Z,23.17
2022-12-11T15:41:34.603Z,23.50
2022-12-11T15:44:03.845Z,23.30
2022-12-11T15:46:36.308Z,23.48
2022-12-11T15:49:10.864Z,22.85
2022-12-11T15:51:42.660Z,24.10
2022-12-11T15:54:10.002Z,24.02
2022-12-11T15:56:36.604Z,24.13
2022-12-11T15:59:04.929Z,24.65
2022-12-11T16:01:31.564Z,24.42
2022-12-11T16:04:03.238Z,23.63
2022-12-11T16:06:31.420Z,27.02
2022-12-11T16:08:57.997Z,23.77
2022-12-11T16:11:24.623Z,24.55
2022-12-11T16:13:56.881Z,23.88
2022-12-11T16:16:23.934Z,25.35
2022-12-11T16:18:51.343Z,29.15
2022-12-11T16:21:21.443Z,27.00
2022-12-11T16:23:48.424Z,28.25
2022-12-11T16:26:15.743Z,25.90
2022-12-11T16:28:43.132Z,27.17
2022-12-11T16:31:11.747Z,26.10
2022-12-11T16:33:38.813Z,26.70
2022-12-11T16:36:16.529Z,29.23
2022-12-11T16:38:53.472Z,26.50
2022-12-11T16:41:20.844Z,26.92
2022-12-11T16:43:47.465Z,29.27
2022-12-11T16:46:18.302Z,27.63
2022-12-11T16:48:45.486Z,34.03
2022-12-11T16:51:12.070Z,32.80
2022-12-11T16:53:38.713Z,37.00
2022-12-11T16:56:06.388Z,29.40
2022-12-11T16:58:33.025Z,32.60
2022-12-11T17:01:02.521Z,28.75
2022-12-11T17:03:30.577Z,27.67
2022-12-11T17:05:57.954Z,26.25
2022-12-11T17:08:26.045Z,34.60
2022-12-11T17:10:53.179Z,35.70
2022-12-11T17:13:19.847Z,28.50
2022-12-11T17:15:46.558Z,32.67
2022-12-11T17:18:13.381Z,33.10
2022-12-11T17:20:41.753Z,31.08
2022-12-11T17:23:10.549Z,30.77
2022-12-11T17:25:41.418Z,29.85
2022-12-11T17:28:08.482Z,27.63
2022-12-11T17:30:38.906Z,24.35
2022-12-11T17:33:05.495Z,28.90
2022-12-11T17:35:32.967Z,28.83
2022-12-11T17:37:59.723Z,31.60
2022-12-11T17:40:26.605Z,31.10
2022-12-11T17:42:53.193Z,29.23
2022-12-11T17:45:19.824Z,27.27
2022-12-11T17:47:46.437Z,29.02
2022-12-11T17:50:13.222Z,28.35
2022-12-11T17:52:44.138Z,27.80
2022-12-11T17:55:11.545Z,26.13
2022-12-11T17:57:38.480Z,27.35
2022-12-11T18:00:06.826Z,30.48
2022-12-11T18:02:34.287Z,29.25
2022-12-11T18:05:01.183Z,27.50
2022-12-11T18:07:27.785Z,30.67
2022-12-11T18:09:54.533Z,29.25
2022-12-11T18:12:21.188Z,29.50
2022-12-11T18:14:47.847Z,29.95
2022-12-11T18:17:14.458Z,32.10
2022-12-11T18:19:45.873Z,27.40
2022-12-11T18:22:12.867Z,30.48
2022-12-11T18:24:39.482Z,153.02
2022-12-11T18:27:10.163Z,152.40
2022-12-11T18:29:37.229Z,42.50
2022-12-11T18:32:04.123Z,30.38
2022-12-11T18:34:30.784Z,30.15
2022-12-11T18:36:57.377Z,27.83
2022-12-11T18:39:24.130Z,30.40
2022-12-11T18:42:16.522Z,29.55
2022-12-11T18:44:37.628Z,26.17
2022-12-11T18:47:04.500Z,30.80
2022-12-11T18:49:31.229Z,25.35
2022-12-11T18:51:57.811Z,28.60
2022-12-11T18:54:24.440Z,26.13
2022-12-11T18:56:51.082Z,26.77
2022-12-11T18:59:18.539Z,25.70
2022-12-11T19:01:45.713Z,24.60
2022-12-11T19:04:12.454Z,26.90
2022-12-11T19:06:39.142Z,27.70
2022-12-11T19:09:08.218Z,26.08
2022-12-11T19:11:38.109Z,24.67
2022-12-11T19:14:05.827Z,23.58
2022-12-11T19:16:38.242Z,27.20
2022-12-11T19:19:09.844Z,22.75
2022-12-11T19:21:37.688Z,28.13
2022-12-11T19:24:06.137Z,26.83
2022-12-11T19:26:33.254Z,27.05
2022-12-11T19:29:00.311Z,24.92
2022-12-11T19:31:29.335Z,27.90
2022-12-11T19:33:56.656Z,26.88
2022-12-11T19:36:25.694Z,29.80
2022-12-11T19:38:56.487Z,28.90
2022-12-11T19:41:28.565Z,26.45
2022-12-11T19:43:56.729Z,27.50
2022-12-11T19:46:26.072Z,27.13
2022-12-11T19:48:54.082Z,25.92
2022-12-11T19:51:23.529Z,26.15
2022-12-11T19:53:50.640Z,25.83
2022-12-11T19:56:19.491Z,26.20
2022-12-11T19:58:46.615Z,26.02
2022-12-11T20:01:29.493Z,26.02
2022-12-11T20:03:59.505Z,22.20
2022-12-11T20:06:28.840Z,27.52
2022-12-11T20:08:55.480Z,28.55
2022-12-11T20:11:23.400Z,28.50
2022-12-11T20:13:50.520Z,27.70
2022-12-11T20:16:28.816Z,28.23
2022-12-11T20:19:05.700Z,28.73
2022-12-11T20:21:32.329Z,28.17
2022-12-11T20:23:59.210Z,27.65
2022-12-11T20:26:26.020Z,27.98
2022-12-11T20:28:53.390Z,29.10
2022-12-11T20:31:23.645Z,32.67
2022-12-11T20:33:51.349Z,34.90
2022-12-11T20:36:20.342Z,29.77
2022-12-11T20:38:47.272Z,30.85
2022-12-11T20:41:16.038Z,31.85
2022-12-11T20:43:43.322Z,31.30
2022-12-11T20:46:11.716Z,32.08
2022-12-11T20:48:39.360Z,31.90
2022-12-11T20:51:09.390Z,30.33
2022-12-11T20:53:37.460Z,34.35
2022-12-11T20:56:12.747Z,28.25
2022-12-11T20:58:40.002Z,30.02
2022-12-11T21:01:06.830Z,29.70
2022-12-11T21:03:40.446Z,30.08
2022-12-11T21:06:38.690Z,28.15
2022-12-11T21:09:13.875Z,29.70
2022-12-11T21:11:40.571Z,30.83
2022-12-11T21:14:07.267Z,29.50
2022-12-11T21:16:36.289Z,29.25
2022-12-11T21:19:04.034Z,30.25
2022-12-11T21:21:36.668Z,29.70
2022-12-11T21:24:04.261Z,30.80
2022-12-11T21:26:30.928Z,28.33
2022-12-11T21:28:57.633Z,33.92
2022-12-11T21:31:24.818Z,29.75
2022-12-11T21:33:51.489Z,29.63
2022-12-11T21:36:18.187Z,30.35
2022-12-11T21:38:45.922Z,34.50
2022-12-11T21:41:14.159Z,29.83
2022-12-11T21:44:00.484Z,29.27
2022-12-11T21:46:29.741Z,29.08
2022-12-11T21:48:56.408Z,33.67
2022-12-11T21:51:29.663Z,28.70
2022-12-11T21:53:59.713Z,30.65
2022-12-11T21:56:28.114Z,32.22
2022-12-11T21:58:55.390Z,29.55
2022-12-11T22:01:30.627Z,32.22
2022-12-11T22:03:58.187Z,31.45
2022-12-11T22:06:24.873Z,29.40
2022-12-11T22:08:51.557Z,28.55
2022-12-11T22:11:24.505Z,27.30
2022-12-11T22:13:51.333Z,23.75
2022-12-11T22:16:18.522Z,29.33
2022-12-11T22:18:45.800Z,31.02
2022-12-11T22:21:12.921Z,29.85
2022-12-11T22:23:40.627Z,27.55
2022-12-11T22:26:08.476Z,30.08
2022-12-11T22:28:35.579Z,27.73
2022-12-11T22:31:02.309Z,30.45
2022-12-11T22:33:28.976Z,29.67
2022-12-11T22:35:57.063Z,28.30
2022-12-11T22:38:24.863Z,30.52
2022-12-11T22:40:52.327Z,28.77
2022-12-11T22:43:19.302Z,29.67
2022-12-11T22:45:46.037Z,29.73
2022-12-11T22:48:13.129Z,30.42
2022-12-11T22:50:40.137Z,31.13
2022-12-11T22:53:06.923Z,28.92
2022-12-11T22:55:34.053Z,29.95
2022-12-11T22:58:00.728Z,29.58
2022-12-11T23:00:27.386Z,26.80
2022-12-11T23:02:54.157Z,30.48
2022-12-11T23:05:20.905Z,27.92
2022-12-11T23:07:47.651Z,29.63
2022-12-11T23:10:14.399Z,31.88
2022-12-11T23:12:41.140Z,31.23
2022-12-11T23:15:08.239Z,29.30
2022-12-11T23:17:34.946Z,30.60
2022-12-11T23:20:03.786Z,27.80
2022-12-11T23:22:30.688Z,26.92
2022-12-11T23:24:57.445Z,27.17
2022-12-11T23:27:24.288Z,26.92
2022-12-11T23:29:51.032Z,29.13
2022-12-11T23:32:17.647Z,27.48
2022-12-11T23:34:44.285Z,27.70
2022-12-11T23:37:10.909Z,27.77
2022-12-11T23:39:37.531Z,32.88
2022-12-11T23:42:04.252Z,26.02
2022-12-11T23:44:30.860Z,26.95
2022-12-11T23:46:57.502Z,26.65
2022-12-11T23:49:24.166Z,26.20
2022-12-11T23:51:50.768Z,25.65
2022-12-11T23:54:17.376Z,29.63
2022-12-11T23:56:44.002Z,27.85
2022-12-11T23:59:14.670Z,28.50
